Time;durP1;ratioP1;P1;durP2;ratioP2;P2;SDS_P1;SDS_P2;PMS_P1;PMS_P2;Temp;Humidity;BMP_temperature;BMP_pressure;BME280_temperature;BME280_humidity;BME280_pressure;Samples;Min_cycle;Max_cycle;Signal;HPM_P1;HPM_P2
2022/09/24 00:01:28;;;;;;;2.87;1.50;;;;;;;5.07;100.00;98904.69;4500856;31;20139;-87
2022/09/24 00:04:01;;;;;;;2.92;1.60;;;;;;;5.06;100.00;98900.41;4500826;31;20159;-87
2022/09/24 00:06:35;;;;;;;2.15;1.40;;;;;;;5.05;100.00;98903.91;4497440;31;20112;-87
2022/09/24 00:09:02;;;;;;;1.70;1.35;;;;;;;5.05;100.00;98906.53;4484973;31;20434;-87
2022/09/24 00:11:30;;;;;;;2.03;1.45;;;;;;;5.04;100.00;98901.44;4484881;31;20100;-87
2022/09/24 00:13:58;;;;;;;2.17;1.20;;;;;;;4.99;100.00;98899.12;4484944;31;20446;-87
2022/09/24 00:16:27;;;;;;;1.92;1.33;;;;;;;4.96;100.00;98904.50;4484776;31;20164;-87
2022/09/24 00:18:55;;;;;;;5.10;1.33;;;;;;;4.96;100.00;98907.12;4484705;31;20115;-87
2022/09/24 00:21:27;;;;;;;2.47;1.30;;;;;;;4.93;100.00;98900.34;4484829;31;20118;-87
2022/09/24 00:23:57;;;;;;;2.15;1.40;;;;;;;4.95;100.00;98902.84;4484760;31;20111;-87
2022/09/24 00:29:13;;;;;;;1.92;1.45;;;;;;;4.96;100.00;98907.12;4484769;32;20107;-86
2022/09/24 00:31:40;;;;;;;2.17;1.27;;;;;;;4.93;100.00;98907.31;4484744;31;20127;-87
2022/09/24 00:34:07;;;;;;;1.90;1.27;;;;;;;4.91;100.00;98906.59;4484573;31;20122;-87
2022/09/24 00:36:35;;;;;;;2.15;1.50;;;;;;;4.90;100.00;98907.50;4484470;31;20131;-87
2022/09/24 00:39:03;;;;;;;4.55;1.70;;;;;;;4.87;100.00;98905.09;4484420;31;20111;-87
2022/09/24 00:41:33;;;;;;;2.92;1.30;;;;;;;4.84;100.00;98902.72;4494249;31;20433;-86
2022/09/24 00:44:00;;;;;;;2.30;1.10;;;;;;;4.80;100.00;98900.31;4500368;31;20562;-87
2022/09/24 00:46:32;;;;;;;2.30;1.55;;;;;;;4.79;100.00;98900.41;4499092;31;20087;-86
2022/09/24 00:49:03;;;;;;;3.70;1.50;;;;;;;4.76;100.00;98896.22;4499098;31;20127;-86
2022/09/24 00:51:31;;;;;;;2.87;1.40;;;;;;;4.78;100.00;98890.94;4499135;31;20196;-87
2022/09/24 00:54:03;;;;;;;3.00;1.60;;;;;;;4.76;100.00;98893.63;4498732;31;20590;-87
2022/09/24 00:56:35;;;;;;;2.45;1.27;;;;;;;4.75;100.00;98886.81;4498959;31;20108;-86
2022/09/24 00:59:03;;;;;;;3.10;1.52;;;;;;;4.76;100.00;98892.81;4500115;31;20080;-87
2022/09/24 01:01:31;;;;;;;1.40;1.15;;;;;;;4.73;100.00;98882.63;4498850;31;20127;-87
2022/09/24 01:03:59;;;;;;;21.98;1.92;;;;;;;4.73;100.00;98880.84;4499924;31;20083;-87
2022/09/24 01:06:26;;;;;;;4.25;1.80;;;;;;;4.73;100.00;98880.03;4495963;31;20119;-87
2022/09/24 01:08:55;;;;;;;3.50;1.75;;;;;;;4.71;100.00;98882.72;4483850;31;20732;-86
2022/09/24 01:11:48;;;;;;;2.17;1.40;;;;;;;4.71;100.00;98885.31;4484103;31;20104;-86
2022/09/24 01:14:31;;;;;;;2.65;1.83;;;;;;;4.70;100.00;98881.06;4484383;31;20475;-87
2022/09/24 01:17:29;;;;;;;2.97;1.75;;;;;;;4.72;100.00;98876.59;4484106;31;20139;-87
2022/09/24 01:20:21;;;;;;;4.95;2.05;;;;;;;4.67;100.00;98878.66;4483982;32;21118;-87
2022/09/24 01:23:10;;;;;;;3.53;1.70;;;;;;;4.66;100.00;98869.19;4484135;31;20104;-88
2022/09/24 01:25:53;;;;;;;2.25;1.60;;;;;;;4.66;100.00;98866.59;4484019;32;20096;-86
2022/09/24 01:28:36;;;;;;;3.58;1.75;;;;;;;4.64;100.00;98867.66;4482603;32;20199;-86
2022/09/24 01:31:15;;;;;;;3.47;1.80;;;;;;;4.63;100.00;98866.78;4482711;32;20557;-87
2022/09/24 01:33:45;;;;;;;2.95;1.70;;;;;;;4.64;100.00;98865.06;4482747;32;20685;-86
2022/09/24 01:36:14;;;;;;;3.47;1.60;;;;;;;4.61;100.00;98860.88;4482556;32;20134;-86
2022/09/24 01:38:43;;;;;;;4.18;1.75;;;;;;;4.60;100.00;98856.59;4483366;32;20579;-86
2022/09/24 01:41:12;;;;;;;2.25;1.48;;;;;;;4.56;100.00;98852.56;4484795;32;20605;-86
2022/09/24 01:43:39;;;;;;;2.62;1.95;;;;;;;4.55;100.00;98850.87;4484839;32;20207;-86
2022/09/24 01:46:07;;;;;;;6.32;2.05;;;;;;;4.54;100.00;98849.22;4486280;31;20088;-86
2022/09/24 01:48:38;;;;;;;2.87;1.35;;;;;;;4.56;100.00;98855.97;4484592;32;20096;-86
2022/09/24 01:51:54;;;;;;;2.72;1.60;;;;;;;4.53;100.00;98850.16;4484901;32;20160;-86
2022/09/24 01:54:25;;;;;;;5.25;1.65;;;;;;;4.51;100.00;98852.00;4472553;32;20202;-86
2022/09/24 01:57:00;;;;;;;3.42;1.80;;;;;;;4.52;100.00;98843.31;4485999;31;20483;-86
2022/09/24 01:59:31;;;;;;;4.35;2.20;;;;;;;4.50;100.00;98850.34;4485831;31;20469;-86
2022/09/24 02:02:07;;;;;;;3.55;1.92;;;;;;;4.48;100.00;98847.88;4484800;32;20151;-86
2022/09/24 02:04:41;;;;;;;5.43;1.70;;;;;;;4.48;100.00;98852.19;4484636;32;20168;-86
2022/09/24 02:07:22;;;;;;;3.17;2.25;;;;;;;4.46;100.00;98848.88;4493068;31;20092;-85
2022/09/24 02:09:49;;;;;;;2.40;1.75;;;;;;;4.42;100.00;98853.41;4501506;31;20450;-86
2022/09/24 02:12:22;;;;;;;3.67;2.03;;;;;;;4.41;100.00;98851.75;4501925;31;20137;-86
2022/09/24 02:14:56;;;;;;;3.85;2.22;;;;;;;4.37;100.00;98853.69;4500266;31;20089;-86
2022/09/24 02:17:26;;;;;;;4.32;2.30;;;;;;;4.37;100.00;98847.69;4501608;31;20563;-86
2022/09/24 02:19:55;;;;;;;4.68;2.80;;;;;;;4.38;100.00;98847.59;4501335;31;20159;-86
2022/09/24 02:22:23;;;;;;;4.37;2.58;;;;;;;4.38;100.00;98850.19;4501622;31;20087;-86
2022/09/24 02:24:53;;;;;;;3.08;2.25;;;;;;;4.43;100.00;98855.09;4501505;31;20104;-85
2022/09/24 02:27:20;;;;;;;5.07;3.10;;;;;;;4.39;100.00;98854.44;4501466;31;20209;-86
2022/09/24 02:29:50;;;;;;;5.32;3.40;;;;;;;4.43;100.00;98849.91;4500385;31;20100;-86
2022/09/24 02:32:18;;;;;;;3.90;3.08;;;;;;;4.46;100.00;98854.06;4501435;31;20075;-86
2022/09/24 02:34:50;;;;;;;6.35;3.15;;;;;;;4.46;100.00;98854.88;4499939;31;20146;-86
2022/09/24 02:37:19;;;;;;;6.60;3.00;;;;;;;4.42;100.00;98856.00;4500373;31;20600;-85
2022/09/24 02:39:47;;;;;;;6.68;3.20;;;;;;;4.37;100.00;98848.50;4499781;31;20096;-85
2022/09/24 02:42:14;;;;;;;5.10;3.58;;;;;;;4.35;100.00;98846.97;4487145;31;20426;-85
2022/09/24 02:44:41;;;;;;;6.90;4.10;;;;;;;4.36;100.00;98846.88;4484461;32;20147;-85
2022/09/24 02:47:09;;;;;;;7.30;3.95;;;;;;;4.38;100.00;98851.97;4485570;32;20484;-85
2022/09/24 02:49:35;;;;;;;7.97;4.50;;;;;;;4.39;100.00;98845.81;4484871;32;20096;-85
2022/09/24 02:52:03;;;;;;;9.40;4.60;;;;;;;4.40;100.00;98844.91;4485667;32;20076;-85
2022/09/24 02:54:30;;;;;;;10.55;3.65;;;;;;;4.43;100.00;98849.91;4485704;32;20504;-86
2022/09/24 02:56:57;;;;;;;9.35;3.55;;;;;;;4.46;100.00;98851.47;4485472;31;20088;-86
2022/09/24 02:59:24;;;;;;;6.93;3.95;;;;;;;4.48;100.00;98853.06;4485234;32;20466;-86
2022/09/24 03:01:52;;;;;;;8.38;4.32;;;;;;;4.52;100.00;98854.50;4485567;32;20096;-85
2022/09/24 03:04:19;;;;;;;9.65;4.40;;;;;;;4.56;100.00;98855.97;4485389;32;20127;-85
2022/09/24 03:06:46;;;;;;;9.13;4.75;;;;;;;4.59;100.00;98850.59;4490073;31;20176;-85
2022/09/24 03:09:13;;;;;;;9.93;4.30;;;;;;;4.64;100.00;98842.53;4500985;31;20119;-85
2022/09/24 03:11:40;;;;;;;7.80;4.57;;;;;;;4.65;100.00;98841.59;4501111;31;20095;-85
2022/09/24 03:14:07;;;;;;;5.97;4.00;;;;;;;4.64;100.00;98837.34;4501303;31;20107;-85
2022/09/24 03:16:35;;;;;;;7.00;4.28;;;;;;;4.62;100.00;98831.41;4501241;31;20156;-85
2022/09/24 03:19:02;;;;;;;7.60;4.80;;;;;;;4.67;100.00;98828.53;4501218;31;20167;-86
2022/09/24 03:21:29;;;;;;;8.93;4.00;;;;;;;4.64;100.00;98841.69;4501058;31;20107;-86
2022/09/24 03:23:56;;;;;;;8.85;4.78;;;;;;;4.58;100.00;98822.16;4501137;31;20493;-85
2022/09/24 03:26:24;;;;;;;11.05;4.95;;;;;;;4.65;100.00;98831.22;4500921;31;20088;-85
2022/09/24 03:28:51;;;;;;;8.30;4.60;;;;;;;4.65;100.00;98823.44;4501182;31;20520;-85
2022/09/24 03:31:18;;;;;;;13.20;5.40;;;;;;;4.64;100.00;98816.56;4500985;31;20272;-86
2022/09/24 03:33:47;;;;;;;9.48;5.15;;;;;;;4.70;100.00;98815.34;4501126;31;20216;-85
2022/09/24 03:36:23;;;;;;;8.15;4.68;;;;;;;4.71;100.00;98817.00;4500877;31;20644;-85
2022/09/24 03:38:54;;;;;;;8.82;5.03;;;;;;;4.71;100.00;98814.41;4500979;31;20139;-85
2022/09/24 03:41:22;;;;;;;7.93;5.32;;;;;;;4.70;100.00;98812.75;4492297;31;20140;-85
2022/09/24 03:43:49;;;;;;;6.85;5.00;;;;;;;4.79;100.00;98812.16;4485246;32;20108;-85
2022/09/24 03:46:17;;;;;;;11.55;6.45;;;;;;;4.89;100.00;98809.78;4485154;32;20673;-85
2022/09/24 03:48:46;;;;;;;10.88;5.32;;;;;;;4.94;100.00;98805.97;4485189;32;20085;-85
2022/09/24 03:51:17;;;;;;;8.05;4.82;;;;;;;5.01;100.00;98802.97;4484907;32;20415;-85
2022/09/24 03:53:45;;;;;;;6.55;4.00;;;;;;;4.97;100.00;98802.34;4485311;32;20167;-85
2022/09/24 03:56:13;;;;;;;6.35;3.83;;;;;;;4.93;100.00;98812.09;4485104;32;20168;-86
2022/09/24 03:58:40;;;;;;;6.43;4.03;;;;;;;4.94;100.00;98803.38;4484948;32;20157;-85
2022/09/24 04:01:10;;;;;;;12.43;4.62;;;;;;;5.00;100.00;98796.09;4484803;32;20378;-85
2022/09/24 04:03:39;;;;;;;9.68;5.03;;;;;;;4.95;100.00;98799.84;4485490;32;20547;-86
2022/09/24 04:06:06;;;;;;;7.72;4.65;;;;;;;4.96;100.00;98800.66;4485138;31;20148;-85
2022/09/24 04:08:33;;;;;;;12.13;4.80;;;;;;;5.04;100.00;98801.03;4500814;31;20167;-85
2022/09/24 04:11:01;;;;;;;8.65;4.65;;;;;;;5.07;100.00;98798.22;4500626;31;20105;-85
2022/09/24 04:13:28;;;;;;;18.15;4.80;;;;;;;5.10;100.00;98802.34;4500810;31;20147;-85
2022/09/24 04:15:55;;;;;;;8.05;4.47;;;;;;;5.10;100.00;98807.53;4500680;31;20147;-85
2022/09/24 04:18:22;;;;;;;9.63;5.25;;;;;;;5.08;100.00;98805.06;4499330;31;20118;-86
2022/09/24 04:20:49;;;;;;;7.80;4.35;;;;;;;5.08;100.00;98805.06;4500644;31;20118;-85
2022/09/24 04:23:16;;;;;;;8.68;4.37;;;;;;;5.10;100.00;98812.75;4500658;31;20088;-85
2022/09/24 04:25:44;;;;;;;8.95;4.70;;;;;;;5.07;100.00;98808.59;4500833;31;20152;-85
2022/09/24 04:28:11;;;;;;;12.85;4.95;;;;;;;5.02;100.00;98805.47;4500811;31;20114;-85
2022/09/24 04:30:39;;;;;;;6.68;4.05;;;;;;;5.02;100.00;98800.28;4500421;31;20437;-85
2022/09/24 04:33:06;;;;;;;9.32;4.53;;;;;;;5.06;100.00;98814.72;4500468;31;20115;-85
2022/09/24 04:35:37;;;;;;;8.32;4.32;;;;;;;5.10;100.00;98805.81;4500460;31;20799;-85
2022/09/24 04:38:04;;;;;;;8.43;4.60;;;;;;;5.05;100.00;98805.25;4500295;31;20118;-86
2022/09/24 04:40:31;;;;;;;9.73;5.07;;;;;;;5.25;100.00;98800.50;4497054;31;20192;-85
2022/09/24 04:42:58;;;;;;;8.63;4.28;;;;;;;5.32;100.00;98804.37;4484380;32;20119;-86
2022/09/24 04:45:26;;;;;;;7.60;4.43;;;;;;;5.36;100.00;98804.97;4484624;32;20159;-85
2022/09/24 04:47:56;;;;;;;11.80;4.97;;;;;;;5.36;100.00;98812.78;4484706;32;20096;-86
2022/09/24 04:50:26;;;;;;;10.20;4.37;;;;;;;5.44;100.00;98808.72;4483444;32;20129;-86
2022/09/24 04:52:54;;;;;;;7.70;4.32;;;;;;;5.53;100.00;98816.81;4484235;32;20702;-86
2022/09/24 04:55:22;;;;;;;8.48;5.10;;;;;;;5.52;100.00;98818.59;4484427;32;20088;-85
2022/09/24 04:57:50;;;;;;;10.05;5.65;;;;;;;5.58;100.00;98818.19;4484050;32;20100;-86
2022/09/24 05:00:19;;;;;;;11.63;5.72;;;;;;;5.82;100.00;98810.47;4484401;32;20438;-85
2022/09/24 05:02:47;;;;;;;9.48;5.60;;;;;;;6.05;100.00;98805.47;4484610;32;20145;-85
2022/09/24 05:05:14;;;;;;;13.38;6.80;;;;;;;6.11;100.00;98805.03;4482944;32;20217;-85
2022/09/24 05:07:43;;;;;;;13.65;6.70;;;;;;;6.29;100.00;98807.31;4494806;31;20184;-85
2022/09/24 05:10:10;;;;;;;13.13;6.90;;;;;;;6.51;100.00;98794.41;4499854;31;20171;-85
2022/09/24 05:12:39;;;;;;;13.52;7.10;;;;;;;6.63;100.00;98790.09;4500132;31;20083;-85
2022/09/24 05:15:07;;;;;;;16.77;7.53;;;;;;;6.75;100.00;98799.63;4501956;31;20112;-86
2022/09/24 05:17:38;;;;;;;15.60;8.15;;;;;;;6.83;100.00;98798.19;4501851;31;20088;-85
2022/09/24 05:20:06;;;;;;;16.73;8.65;;;;;;;6.91;100.00;98801.91;4502396;31;20088;-86
2022/09/24 05:22:35;;;;;;;17.55;8.32;;;;;;;7.05;100.00;98800.06;4501805;31;20123;-86
2022/09/24 05:25:02;;;;;;;19.42;9.52;;;;;;;7.23;100.00;98793.47;4502054;31;20496;-85
2022/09/24 05:27:29;;;;;;;24.05;10.63;;;;;;;7.34;100.00;98797.88;4501571;31;20144;-85
2022/09/24 05:29:57;;;;;;;21.45;10.30;;;;;;;7.43;100.00;98794.59;4501934;31;20126;-88
2022/09/24 05:32:24;;;;;;;18.77;9.32;;;;;;;7.59;100.00;98794.25;4501681;31;20147;-85
2022/09/24 05:34:52;;;;;;;23.85;10.68;;;;;;;7.66;100.00;98798.97;4501708;31;20413;-85
2022/09/24 05:37:19;;;;;;;19.35;9.55;;;;;;;7.84;100.00;98800.16;4501520;31;20109;-86
2022/09/24 05:39:46;;;;;;;23.30;10.65;;;;;;;8.03;100.00;98794.34;4501720;31;20424;-87
2022/09/24 05:42:13;;;;;;;19.17;10.77;;;;;;;8.10;100.00;98792.94;4487403;31;20102;-86
2022/09/24 05:44:44;;;;;;;25.10;11.15;;;;;;;8.26;100.00;98797.75;4486105;31;20508;-85
2022/09/24 05:47:17;;;;;;;25.25;12.00;;;;;;;8.39;100.00;98795.00;4486038;31;20084;-86
2022/09/24 05:49:45;;;;;;;22.33;10.93;;;;;;;8.52;100.00;98798.34;4486009;31;20499;-86
2022/09/24 05:52:12;;;;;;;24.08;11.00;;;;;;;8.64;100.00;98800.91;4485886;31;20119;-86
2022/09/24 05:54:39;;;;;;;21.60;10.93;;;;;;;8.64;100.00;98808.72;4485881;31;20613;-86
2022/09/24 05:57:06;;;;;;;19.90;10.77;;;;;;;8.73;100.00;98809.78;4485841;31;20161;-85
2022/09/24 05:59:33;;;;;;;23.70;11.27;;;;;;;8.85;100.00;98814.00;4485850;31;20498;-85
2022/09/24 06:02:00;;;;;;;22.48;11.65;;;;;;;9.04;100.00;98811.53;4485808;31;20104;-85
2022/09/24 06:04:27;;;;;;;20.33;11.30;;;;;;;9.19;100.00;98814.69;4486017;31;20127;-86
2022/09/24 06:06:55;;;;;;;21.20;11.45;;;;;;;9.43;100.00;98812.75;4491220;31;20505;-86
2022/09/24 06:09:22;;;;;;;17.83;9.63;;;;;;;9.68;100.00;98816.75;4501568;31;20088;-85
2022/09/24 06:11:51;;;;;;;29.85;11.93;;;;;;;9.85;99.64;98808.28;4501411;31;20160;-85
2022/09/24 06:14:19;;;;;;;24.27;11.70;;;;;;;10.02;98.08;98813.84;4501631;31;20190;-86
2022/09/24 06:16:46;;;;;;;25.00;12.30;;;;;;;10.24;97.25;98811.03;4501522;31;20155;-86
2022/09/24 06:19:13;;;;;;;19.52;12.07;;;;;;;10.33;95.92;98817.28;4501503;31;20141;-85
2022/09/24 06:21:40;;;;;;;22.05;10.95;;;;;;;10.49;95.66;98819.37;4501523;31;20163;-85
2022/09/24 06:24:07;;;;;;;23.30;10.65;;;;;;;10.71;93.83;98820.94;4501056;31;20204;-85
2022/09/24 06:26:35;;;;;;;21.05;10.40;;;;;;;10.92;92.45;98822.59;4500916;31;20517;-85
2022/09/24 06:29:02;;;;;;;25.80;9.80;;;;;;;11.06;91.78;98824.78;4501205;31;20140;-85
2022/09/24 06:31:31;;;;;;;15.43;9.45;;;;;;;11.24;91.46;98829.34;4501487;31;20176;-85
2022/09/24 06:33:59;;;;;;;18.25;9.50;;;;;;;11.47;87.43;98833.31;4501528;31;20101;-85
2022/09/24 06:36:26;;;;;;;18.40;9.98;;;;;;;11.65;87.95;98830.78;4501268;31;20405;-85
2022/09/24 06:38:53;;;;;;;18.55;9.77;;;;;;;11.93;90.40;98832.66;4501085;31;20152;-85
2022/09/24 06:41:21;;;;;;;17.62;9.93;;;;;;;11.69;86.32;98831.34;4493002;31;20116;-85
2022/09/24 06:43:48;;;;;;;17.20;9.18;;;;;;;11.71;85.91;98824.94;4485434;32;20092;-85
2022/09/24 06:46:15;;;;;;;12.73;8.98;;;;;;;11.75;87.91;98824.66;4485586;32;20114;-85
2022/09/24 06:48:42;;;;;;;14.73;8.65;;;;;;;11.92;85.55;98825.72;4485324;32;20149;-85
2022/09/24 06:51:09;;;;;;;16.33;8.65;;;;;;;11.81;85.72;98824.94;4485442;32;20089;-85
2022/09/24 06:53:37;;;;;;;13.73;7.85;;;;;;;11.74;86.38;98834.34;4485396;32;20151;-85
2022/09/24 06:56:04;;;;;;;17.70;9.55;;;;;;;11.75;86.13;98825.50;4485597;32;20530;-85
2022/09/24 06:58:32;;;;;;;17.10;9.95;;;;;;;11.69;84.45;98826.91;4485208;32;20136;-86
2022/09/24 07:01:01;;;;;;;15.05;8.60;;;;;;;11.64;86.53;98836.16;4485582;32;20438;-85
2022/09/24 07:03:30;;;;;;;25.25;9.65;;;;;;;11.58;84.71;98828.88;4485473;32;20108;-85
2022/09/24 07:06:03;;;;;;;16.52;7.90;;;;;;;11.66;84.86;98842.13;4485356;32;20084;-85
2022/09/24 07:08:31;;;;;;;14.75;7.82;;;;;;;11.86;86.71;98845.50;4485203;31;20165;-85
2022/09/24 07:10:59;;;;;;;14.90;8.18;;;;;;;11.94;82.97;98845.62;4485410;31;20220;-85
2022/09/24 07:13:26;;;;;;;16.30;8.43;;;;;;;11.78;85.36;98845.38;4485232;31;20126;-85
2022/09/24 07:15:54;;;;;;;16.00;8.98;;;;;;;12.02;83.72;98847.53;4485349;31;20421;-85
2022/09/24 07:18:21;;;;;;;20.45;9.55;;;;;;;12.28;82.49;98846.88;4485296;31;20088;-86
2022/09/24 07:20:53;;;;;;;23.65;10.38;;;;;;;12.41;82.82;98853.47;4485373;31;20480;-86
2022/09/24 07:23:20;;;;;;;18.02;9.80;;;;;;;12.40;81.46;98862.31;4485247;31;20128;-86
2022/09/24 07:25:48;;;;;;;14.82;9.15;;;;;;;12.29;85.23;98865.09;4485226;31;20097;-85
2022/09/24 07:28:15;;;;;;;18.37;9.18;;;;;;;12.23;80.80;98860.44;4485283;31;20426;-86
2022/09/24 07:30:43;;;;;;;16.80;9.05;;;;;;;12.22;79.92;98853.56;4485322;32;20477;-85
2022/09/24 07:33:10;;;;;;;18.20;8.43;;;;;;;11.92;81.73;98859.88;4485095;32;20168;-86
2022/09/24 07:35:38;;;;;;;14.70;8.40;;;;;;;11.71;81.86;98864.31;4484881;32;20136;-85
2022/09/24 07:38:10;;;;;;;19.62;9.07;;;;;;;11.89;80.59;98863.59;4484725;31;20123;-86
2022/09/24 07:40:38;;;;;;;16.30;9.45;;;;;;;12.12;79.71;98869.34;4488964;31;20080;-85
2022/09/24 07:43:11;;;;;;;14.90;8.98;;;;;;;12.23;80.47;98866.53;4501091;31;20172;-85
2022/09/24 07:45:41;;;;;;;19.73;9.13;;;;;;;12.20;82.03;98868.59;4501115;31;20111;-85
2022/09/24 07:48:09;;;;;;;15.48;9.00;;;;;;;12.30;80.87;98873.84;4501019;31;20156;-85
2022/09/24 07:50:38;;;;;;;17.20;8.95;;;;;;;12.21;82.81;98873.72;4500943;31;20119;-85
2022/09/24 07:53:05;;;;;;;19.98;9.65;;;;;;;12.24;79.98;98872.59;4500819;31;20199;-85
2022/09/24 07:55:38;;;;;;;16.80;8.80;;;;;;;12.21;81.04;98873.72;4500738;31;20108;-86
2022/09/24 07:58:07;;;;;;;18.52;9.15;;;;;;;12.03;81.11;98872.81;4500677;31;20084;-85
2022/09/24 08:00:34;;;;;;;23.58;10.70;;;;;;;12.22;80.73;98872.75;4501020;31;20118;-85
2022/09/24 08:03:02;;;;;;;24.60;10.68;;;;;;;12.29;80.23;98875.63;4500683;31;20852;-85
2022/09/24 08:05:30;;;;;;;24.20;10.23;;;;;;;12.58;79.86;98867.59;4500604;31;20152;-86
2022/09/24 08:08:00;;;;;;;18.50;9.23;;;;;;;12.57;76.32;98870.38;4487843;31;20173;-86
2022/09/24 08:10:27;;;;;;;19.55;9.00;;;;;;;12.81;76.75;98867.19;4484926;31;20089;-85
2022/09/24 08:12:57;;;;;;;19.17;8.80;;;;;;;13.07;77.70;98869.88;4485029;31;20114;-86
2022/09/24 08:15:24;;;;;;;17.65;8.40;;;;;;;13.09;77.09;98869.72;4484900;31;20151;-85
2022/09/24 08:17:52;;;;;;;18.55;8.32;;;;;;;13.51;76.31;98861.22;4484747;31;20120;-87
2022/09/24 08:20:20;;;;;;;16.62;8.32;;;;;;;13.64;79.86;98859.00;4484660;31;20156;-86
2022/09/24 08:22:47;;;;;;;17.60;8.38;;;;;;;13.92;78.09;98864.13;4484904;32;20204;-88
2022/09/24 08:25:14;;;;;;;18.33;9.80;;;;;;;14.01;76.99;98863.16;4484591;31;20499;-85
2022/09/24 08:27:41;;;;;;;14.05;8.23;;;;;;;13.78;78.19;98859.44;4484566;31;20087;-85
2022/09/24 08:30:09;;;;;;;13.40;9.02;;;;;;;13.80;77.05;98853.00;4484484;31;20092;-85
2022/09/24 08:32:36;;;;;;;15.60;8.88;;;;;;;13.59;76.11;98844.66;4485010;31;20108;-85
2022/09/24 08:35:07;;;;;;;17.40;8.52;;;;;;;13.54;75.69;98839.84;4484367;31;20452;-85
2022/09/24 08:37:34;;;;;;;18.25;9.30;;;;;;;13.79;78.85;98842.63;4484581;31;20162;-85
2022/09/24 08:40:02;;;;;;;20.88;8.35;;;;;;;14.05;79.36;98847.06;4484196;31;20092;-85
2022/09/24 08:42:37;;;;;;;13.30;8.15;;;;;;;14.38;74.91;98843.56;4484745;31;20092;-85
2022/09/24 08:48:00;;;;;;;16.20;8.35;;;;;;;14.33;76.34;98830.03;4483457;31;20075;-86
2022/09/24 08:50:29;;;;;;;15.80;9.13;;;;;;;14.36;76.59;98835.00;4484413;31;20141;-85
2022/09/24 08:53:13;;;;;;;18.77;8.32;;;;;;;14.44;76.42;98838.62;4484464;31;20097;-85
2022/09/24 08:55:49;;;;;;;15.48;8.73;;;;;;;14.49;76.55;98839.81;4484268;31;20144;-85
2022/09/24 08:58:27;;;;;;;13.73;8.82;;;;;;;14.78;78.03;98843.06;4483224;32;20168;-85
2022/09/24 09:01:06;;;;;;;16.62;8.50;;;;;;;14.50;78.22;98853.81;4483184;32;20524;-85
2022/09/24 09:04:05;;;;;;;20.27;10.02;;;;;;;14.29;77.00;98854.22;4483050;32;20501;-85
2022/09/24 09:06:47;;;;;;;15.30;8.77;;;;;;;14.34;79.96;98844.88;4481058;31;20091;-86
2022/09/24 09:09:18;;;;;;;14.73;9.27;;;;;;;14.49;77.32;98828.47;4498615;31;20088;-85
2022/09/24 09:11:49;;;;;;;18.15;9.25;;;;;;;14.47;77.13;98833.88;4500030;31;20455;-88
2022/09/24 09:14:19;;;;;;;16.55;9.40;;;;;;;14.50;78.20;98825.66;4500267;31;20088;-85
2022/09/24 09:16:58;;;;;;;20.12;10.23;;;;;;;14.69;77.10;98821.94;4499867;31;20174;-85
2022/09/24 09:19:28;;;;;;;15.70;9.40;;;;;;;14.74;77.49;98826.72;4498569;31;20109;-85
2022/09/24 09:21:59;;;;;;;17.52;10.13;;;;;;;14.56;76.73;98826.81;4499969;31;20784;-85
2022/09/24 09:24:41;;;;;;;17.25;9.68;;;;;;;14.66;77.98;98819.63;4498662;31;20091;-85
2022/09/24 09:27:13;;;;;;;;;;;;;;;14.44;78.41;98820.19;4498700;31;20139;-86
2022/09/24 09:29:50;;;;;;;17.48;9.25;;;;;;;14.39;80.89;98823.31;4499731;31;19986;-88
2022/09/24 09:32:56;;;;;;;15.55;8.65;;;;;;;14.82;78.36;98824.09;4499654;31;20478;-85
2022/09/24 09:35:31;;;;;;;14.68;8.05;;;;;;;15.07;76.95;98811.75;4498160;31;20171;-85
2022/09/24 09:38:23;;;;;;;15.88;9.25;;;;;;;15.47;73.03;98811.06;4498392;31;20787;-86
2022/09/24 09:41:05;;;;;;;12.80;8.00;;;;;;;15.52;72.24;98811.37;4494449;31;20151;-85
2022/09/24 09:43:34;;;;;;;13.90;6.45;;;;;;;15.95;72.57;98807.47;4482634;32;20127;-85
2022/09/24 09:46:19;;;;;;;11.12;7.65;;;;;;;15.93;73.81;98806.03;4483659;32;20169;-85
2022/09/24 09:48:53;;;;;;;12.68;6.43;;;;;;;16.57;71.90;98808.50;4482462;32;20104;-85
2022/09/24 09:51:24;;;;;;;12.40;6.62;;;;;;;16.72;68.42;98811.22;4482693;32;20136;-85
2022/09/24 09:53:57;;;;;;;13.55;6.00;;;;;;;16.24;67.57;98802.59;4482325;32;20206;-85
2022/09/24 09:56:36;;;;;;;9.35;5.80;;;;;;;16.32;68.03;98815.75;4483504;32;20437;-85
2022/09/24 09:59:20;;;;;;;11.85;5.10;;;;;;;16.15;70.34;98812.37;4483635;32;20170;-85
2022/09/24 10:01:55;;;;;;;8.77;5.28;;;;;;;16.29;69.62;98808.16;4484800;32;20146;-85
2022/09/24 10:04:34;;;;;;;7.62;4.65;;;;;;;16.01;69.44;98807.81;4485834;32;20100;-85
2022/09/24 10:07:12;;;;;;;10.13;4.57;;;;;;;16.45;67.46;98801.97;4492302;31;20449;-85
2022/09/24 10:09:42;;;;;;;8.52;4.87;;;;;;;16.08;71.65;98804.31;4501480;31;20114;-85
2022/09/24 10:12:23;;;;;;;6.45;4.32;;;;;;;16.63;69.01;98799.06;4501667;31;20476;-86
2022/09/24 10:15:11;;;;;;;6.47;4.18;;;;;;;16.47;69.76;98800.81;4501590;31;20132;-86
2022/09/24 10:17:38;;;;;;;8.30;4.45;;;;;;;16.71;68.02;98788.41;4500514;31;20450;-85
2022/09/24 10:20:16;;;;;;;19.12;4.78;;;;;;;17.32;68.93;98785.81;4501561;31;20153;-85
2022/09/24 10:22:50;;;;;;;8.45;3.90;;;;;;;17.31;67.88;98783.34;4501459;31;20084;-85
2022/09/24 10:25:23;;;;;;;10.40;3.15;;;;;;;17.08;66.53;98788.66;4500222;31;20558;-85
2022/09/24 10:27:52;;;;;;;5.37;2.90;;;;;;;17.02;63.24;98774.34;4501448;31;20096;-85
2022/09/24 10:30:35;;;;;;;13.35;6.15;;;;;;;17.06;61.72;98785.38;4500226;31;20617;-85
2022/09/24 10:33:03;;;;;;;6.80;2.78;;;;;;;17.44;62.09;98780.06;4500721;31;20092;-85
2022/09/24 10:35:34;;;;;;;7.10;3.75;;;;;;;17.27;61.61;98776.75;4501408;31;20096;-85
2022/09/24 10:38:14;;;;;;;17.83;7.97;;;;;;;17.29;61.38;98775.59;4501682;31;20096;-85
2022/09/24 10:40:41;;;;;;;6.35;2.90;;;;;;;17.34;61.11;98767.91;4496854;31;20112;-85
2022/09/24 10:43:17;;;;;;;5.93;2.65;;;;;;;17.59;61.01;98766.84;4486015;32;20089;-85
2022/09/24 10:46:00;;;;;;;2.65;1.60;;;;;;;17.53;60.12;98782.47;4485534;32;20100;-85
2022/09/24 10:48:38;;;;;;;5.95;2.05;;;;;;;17.76;57.53;98776.25;4485774;31;20084;-85
2022/09/24 10:51:28;;;;;;;4.25;3.10;;;;;;;17.86;58.13;98779.44;4485619;32;20127;-85
2022/09/24 10:54:03;;;;;;;9.07;2.00;;;;;;;18.14;55.10;98765.53;4485581;32;20085;-85
2022/09/24 10:56:40;;;;;;;5.15;2.60;;;;;;;17.89;56.34;98772.97;4485557;32;20197;-85
2022/09/24 10:59:19;;;;;;;32.03;15.13;;;;;;;17.81;55.82;98773.06;4485484;32;20138;-85
2022/09/24 11:02:10;;;;;;;6.05;2.83;;;;;;;18.15;57.50;98777.78;4485463;31;20196;-85
2022/09/24 11:04:59;;;;;;;3.53;1.77;;;;;;;17.75;58.25;98777.25;4485384;32;20135;-85
2022/09/24 11:07:30;;;;;;;4.43;1.80;;;;;;;18.03;55.60;98768.66;4494525;31;20098;-85
2022/09/24 11:10:21;;;;;;;8.82;2.42;;;;;;;18.31;54.57;98762.66;4501205;31;20597;-85
2022/09/24 11:13:15;;;;;;;8.05;4.20;;;;;;;18.24;56.51;98757.28;4500865;31;20084;-85
2022/09/24 11:15:45;;;;;;;5.12;2.37;;;;;;;18.43;57.28;98766.47;4499872;31;20084;-85
2022/09/24 11:18:50;;;;;;;4.57;2.08;;;;;;;18.68;55.67;98760.78;4501215;31;20457;-85
2022/09/24 11:21:42;;;;;;;4.37;2.12;;;;;;;18.78;55.08;98758.66;4501027;31;20103;-85
2022/09/24 11:24:24;;;;;;;4.32;1.83;;;;;;;19.20;55.83;98746.38;4501264;31;20438;-85
2022/09/24 11:27:19;;;;;;;2.90;1.83;;;;;;;18.89;54.13;98744.88;4500972;31;20116;-85
2022/09/24 11:29:49;;;;;;;2.35;1.45;;;;;;;18.30;53.89;98739.81;4501019;31;20489;-85
2022/09/24 11:32:30;;;;;;;5.93;2.00;;;;;;;18.23;55.00;98742.41;4500934;31;20151;-86
2022/09/24 11:35:16;;;;;;;7.37;2.45;;;;;;;18.05;55.70;98742.81;4500953;31;20102;-85
2022/09/24 11:37:52;;;;;;;3.08;1.70;;;;;;;17.95;56.14;98744.91;4500959;31;20072;-86
2022/09/24 11:40:39;;;;;;;4.30;2.30;;;;;;;17.95;57.31;98736.97;4499054;31;20114;-85
2022/09/24 11:43:17;;;;;;;2.58;1.92;;;;;;;18.00;57.27;98726.63;4485173;32;20096;-85
2022/09/24 11:46:02;;;;;;;4.43;1.95;;;;;;;18.01;55.49;98730.91;4484198;32;20810;-85
2022/09/24 11:48:36;;;;;;;3.53;1.73;;;;;;;18.69;55.48;98727.94;4485258;32;20156;-86
2022/09/24 11:51:40;;;;;;;3.42;2.25;;;;;;;18.51;55.14;98731.84;4484068;32;20142;-85
2022/09/24 11:54:23;;;;;;;3.87;2.12;;;;;;;18.28;55.30;98732.03;4485460;32;20415;-85
2022/09/24 11:56:59;;;;;;;5.97;2.00;;;;;;;18.30;53.69;98734.50;4485126;32;20192;-85